Time;durP1;ratioP1;P1;durP2;ratioP2;P2;SDS_P1;SDS_P2;PMS_P1;PMS_P2;Temp;Humidity;BMP_temperature;BMP_pressure;BME280_temperature;BME280_humidity;BME280_pressure;Samples;Min_cycle;Max_cycle;Signal;HPM_P1;HPM_P2
2023/04/19 00:01:33;;;;;;;19.25;12.10;;;;;;;;;;4971101;28;20041;-65
2023/04/19 00:03:58;;;;;;;19.35;11.50;;;;;;;;;;4971826;28;20081;-65
2023/04/19 00:06:24;;;;;;;18.10;11.75;;;;;;;;;;4970274;28;20517;-63
2023/04/19 00:08:49;;;;;;;18.95;11.25;;;;;;;;;;4976172;28;20459;-63
2023/04/19 00:11:15;;;;;;;18.83;10.95;;;;;;;;;;4967602;28;20061;-65
2023/04/19 00:13:40;;;;;;;15.20;9.75;;;;;;;;;;4964141;28;20026;-71
2023/04/19 00:16:05;;;;;;;17.67;9.55;;;;;;;;;;4964945;28;20128;-65
2023/04/19 00:18:30;;;;;;;14.95;9.27;;;;;;;;;;4964696;28;20054;-63
2023/04/19 00:20:57;;;;;;;15.30;8.60;;;;;;;;;;4972578;28;20038;-64
2023/04/19 00:23:22;;;;;;;;;;;;;;;;;;4973442;28;20446;-69
2023/04/19 00:25:48;;;;;;;15.93;8.70;;;;;;;;;;4974065;28;19980;-64
2023/04/19 00:28:13;;;;;;;12.80;7.85;;;;;;;;;;4974322;28;20038;-65
2023/04/19 00:30:38;;;;;;;14.80;8.05;;;;;;;;;;4978261;28;20023;-65
2023/04/19 00:33:03;;;;;;;12.57;7.15;;;;;;;;;;4977950;28;20641;-70
2023/04/19 00:35:28;;;;;;;14.47;8.03;;;;;;;;;;4974224;28;20065;-68
2023/04/19 00:37:53;;;;;;;12.80;7.28;;;;;;;;;;4972615;28;20073;-64
2023/04/19 00:40:18;;;;;;;13.68;6.68;;;;;;;;;;4974171;28;20015;-69
2023/04/19 00:42:44;;;;;;;13.10;6.65;;;;;;;;;;4965000;28;20058;-63
2023/04/19 00:45:10;;;;;;;14.18;6.82;;;;;;;;;;4977146;28;20027;-67
2023/04/19 00:47:35;;;;;;;11.57;6.25;;;;;;;;;;4970096;28;20081;-67
2023/04/19 00:50:01;;;;;;;13.80;5.97;;;;;;;;;;4968273;28;20260;-63
2023/04/19 00:52:26;;;;;;;12.85;6.43;;;;;;;;;;4975233;28;20559;-63
2023/04/19 00:54:52;;;;;;;9.82;5.75;;;;;;;;;;4966817;28;20018;-66
2023/04/19 00:57:17;;;;;;;11.70;6.65;;;;;;;;;;4969733;28;20073;-63
2023/04/19 00:59:43;;;;;;;10.67;6.40;;;;;;;;;;4973227;28;20422;-65
2023/04/19 01:02:08;;;;;;;12.07;6.40;;;;;;;;;;4961355;28;20031;-68
2023/04/19 01:04:33;;;;;;;11.10;6.35;;;;;;;;;;4966804;28;20516;-65
2023/04/19 01:06:58;;;;;;;12.37;5.60;;;;;;;;;;4972210;28;20034;-65
2023/04/19 01:09:23;;;;;;;11.90;6.07;;;;;;;;;;4976009;28;20085;-66
2023/04/19 01:11:49;;;;;;;12.57;6.05;;;;;;;;;;4969429;28;20107;-64
2023/04/19 01:14:14;;;;;;;10.98;5.30;;;;;;;;;;4965687;28;20027;-66
2023/04/19 01:16:40;;;;;;;9.98;5.80;;;;;;;;;;4966985;28;20024;-65
2023/04/19 01:19:05;;;;;;;11.13;5.40;;;;;;;;;;4965000;28;20050;-66
2023/04/19 01:21:31;;;;;;;9.80;5.32;;;;;;;;;;4977779;28;20537;-65
2023/04/19 01:23:56;;;;;;;10.80;5.63;;;;;;;;;;4988882;28;20037;-65
2023/04/19 01:26:21;;;;;;;13.77;6.22;;;;;;;;;;4968134;28;20023;-68
2023/04/19 01:28:46;;;;;;;8.52;4.53;;;;;;;;;;4986256;28;20022;-65
2023/04/19 01:31:12;;;;;;;9.40;5.20;;;;;;;;;;4986772;28;20047;-67
2023/04/19 01:33:37;;;;;;;9.68;5.28;;;;;;;;;;4985736;28;20018;-64
2023/04/19 01:36:02;;;;;;;9.75;5.63;;;;;;;;;;4983684;28;20014;-64
2023/04/19 01:38:27;;;;;;;11.53;5.43;;;;;;;;;;4984114;28;20035;-68
2023/04/19 01:40:55;;;;;;;11.73;5.50;;;;;;;;;;4973172;28;20146;-65
2023/04/19 01:43:20;;;;;;;10.73;5.18;;;;;;;;;;4962137;28;20508;-64
2023/04/19 01:45:45;;;;;;;12.32;5.32;;;;;;;;;;4963750;28;20023;-64
2023/04/19 01:48:11;;;;;;;12.57;5.90;;;;;;;;;;4958891;28;20292;-65
2023/04/19 01:50:36;;;;;;;10.45;5.78;;;;;;;;;;4969247;28;20033;-68
2023/04/19 01:53:01;;;;;;;10.30;5.80;;;;;;;;;;4972624;28;20110;-66
2023/04/19 01:55:26;;;;;;;11.60;6.07;;;;;;;;;;4968649;28;20027;-63
2023/04/19 01:57:52;;;;;;;13.80;6.33;;;;;;;;;;4967720;28;20030;-64
2023/04/19 02:00:18;;;;;;;12.20;5.47;;;;;;;;;;4962678;28;20019;-63
2023/04/19 02:02:44;;;;;;;11.80;5.60;;;;;;;;;;4967913;28;20019;-67
2023/04/19 02:05:09;;;;;;;11.53;5.43;;;;;;;;;;4962592;28;20023;-65
2023/04/19 02:07:34;;;;;;;9.93;5.57;;;;;;;;;;4970313;28;20053;-66
2023/04/19 02:09:59;;;;;;;10.57;6.03;;;;;;;;;;4971497;28;20478;-64
2023/04/19 02:12:28;;;;;;;11.17;6.13;;;;;;;;;;4971318;28;20061;-64
2023/04/19 02:14:56;;;;;;;11.30;5.93;;;;;;;;;;4968917;28;20034;-63
2023/04/19 02:17:21;;;;;;;11.20;6.40;;;;;;;;;;4969886;28;20030;-64
2023/04/19 02:19:46;;;;;;;11.90;6.13;;;;;;;;;;4970874;28;20026;-68
2023/04/19 02:22:11;;;;;;;12.00;6.10;;;;;;;;;;4974181;28;20056;-64
2023/04/19 02:24:36;;;;;;;11.18;6.00;;;;;;;;;;4973368;28;20082;-67
2023/04/19 02:27:01;;;;;;;11.88;6.03;;;;;;;;;;4970901;28;20114;-63
2023/04/19 02:29:27;;;;;;;10.67;6.10;;;;;;;;;;4974460;28;20018;-67
2023/04/19 02:31:52;;;;;;;13.27;6.00;;;;;;;;;;4973940;28;20042;-63
2023/04/19 02:34:17;;;;;;;10.15;5.70;;;;;;;;;;4963595;28;20102;-66
2023/04/19 02:36:42;;;;;;;11.27;6.23;;;;;;;;;;4971748;28;20029;-64
2023/04/19 02:39:07;;;;;;;11.10;6.30;;;;;;;;;;4972047;28;20030;-64
2023/04/19 02:41:32;;;;;;;13.00;5.93;;;;;;;;;;4970937;28;20078;-64
2023/04/19 02:43:58;;;;;;;13.63;6.05;;;;;;;;;;4961259;28;20023;-64
2023/04/19 02:46:23;;;;;;;12.63;6.47;;;;;;;;;;4973873;28;20514;-66
2023/04/19 02:48:48;;;;;;;12.20;6.63;;;;;;;;;;4969844;28;20023;-70
2023/04/19 02:51:14;;;;;;;12.32;6.00;;;;;;;;;;4962594;28;20191;-71
2023/04/19 02:53:39;;;;;;;13.02;6.35;;;;;;;;;;4970455;28;20035;-66
2023/04/19 02:56:05;;;;;;;12.00;6.57;;;;;;;;;;4975025;28;20022;-64
2023/04/19 02:58:30;;;;;;;12.48;6.50;;;;;;;;;;4970657;28;20105;-66
2023/04/19 03:00:55;;;;;;;11.68;6.35;;;;;;;;;;4974944;28;20027;-66
2023/04/19 03:03:20;;;;;;;11.70;6.10;;;;;;;;;;4967346;28;20035;-64
2023/04/19 03:05:45;;;;;;;13.43;7.33;;;;;;;;;;4973779;28;20093;-68
2023/04/19 03:08:10;;;;;;;11.57;6.40;;;;;;;;;;4968045;28;20058;-65
2023/04/19 03:10:36;;;;;;;11.88;7.05;;;;;;;;;;4976916;28;20026;-63
2023/04/19 03:13:01;;;;;;;13.98;6.90;;;;;;;;;;4966718;28;20102;-66
2023/04/19 03:15:26;;;;;;;12.70;6.68;;;;;;;;;;4969748;28;20038;-64
2023/04/19 03:17:51;;;;;;;13.65;7.28;;;;;;;;;;4967486;28;20392;-65
2023/04/19 03:20:17;;;;;;;12.98;6.55;;;;;;;;;;4971770;28;20290;-64
2023/04/19 03:22:42;;;;;;;14.73;7.82;;;;;;;;;;4970515;28;20030;-67
2023/04/19 03:25:11;;;;;;;13.50;7.65;;;;;;;;;;4967487;28;20038;-63
2023/04/19 03:27:36;;;;;;;12.38;7.35;;;;;;;;;;4971752;28;20034;-64
2023/04/19 03:30:01;;;;;;;14.57;7.70;;;;;;;;;;4971107;28;20019;-64
2023/04/19 03:32:26;;;;;;;15.57;7.90;;;;;;;;;;4972682;28;20042;-64
2023/04/19 03:34:51;;;;;;;14.38;7.97;;;;;;;;;;4970008;28;20504;-67
2023/04/19 03:37:17;;;;;;;14.05;8.02;;;;;;;;;;4969887;28;20095;-64
2023/04/19 03:39:42;;;;;;;15.48;8.75;;;;;;;;;;4972021;28;20029;-66
2023/04/19 03:42:07;;;;;;;14.90;8.88;;;;;;;;;;4970666;28;20023;-65
2023/04/19 03:44:32;;;;;;;16.03;9.30;;;;;;;;;;4970619;28;20035;-64
2023/04/19 03:46:57;;;;;;;17.90;9.10;;;;;;;;;;4973108;28;20034;-65
2023/04/19 03:49:22;;;;;;;16.40;9.87;;;;;;;;;;4973864;28;20513;-66
2023/04/19 03:51:48;;;;;;;19.63;9.90;;;;;;;;;;4973583;28;20046;-71
2023/04/19 03:54:13;;;;;;;17.03;9.83;;;;;;;;;;4970018;28;20106;-65
2023/04/19 03:56:38;;;;;;;16.30;9.30;;;;;;;;;;4971195;28;20049;-67
2023/04/19 03:59:03;;;;;;;17.60;9.93;;;;;;;;;;4969561;28;20030;-63
2023/04/19 04:01:28;;;;;;;18.63;10.40;;;;;;;;;;4968589;28;20113;-68
2023/04/19 04:03:53;;;;;;;19.25;10.00;;;;;;;;;;4963345;28;20041;-65
2023/04/19 04:06:19;;;;;;;17.80;9.77;;;;;;;;;;4969343;28;20368;-65
2023/04/19 04:08:45;;;;;;;16.00;9.63;;;;;;;;;;4977503;28;20047;-64
2023/04/19 04:11:10;;;;;;;15.50;9.32;;;;;;;;;;4973924;28;20023;-65
2023/04/19 04:13:36;;;;;;;17.07;9.93;;;;;;;;;;4980735;28;20023;-66
2023/04/19 04:16:01;;;;;;;15.82;9.70;;;;;;;;;;4977834;28;20461;-64
2023/04/19 04:18:27;;;;;;;17.65;10.05;;;;;;;;;;4978617;28;20038;-66
2023/04/19 04:20:52;;;;;;;16.50;8.70;;;;;;;;;;4973370;28;20054;-65
2023/04/19 04:23:20;;;;;;;16.77;9.40;;;;;;;;;;4964010;28;20069;-64
2023/04/19 04:25:46;;;;;;;16.63;8.52;;;;;;;;;;4968638;28;20019;-64
2023/04/19 04:28:11;;;;;;;19.60;8.98;;;;;;;;;;4971355;28;20031;-65
2023/04/19 04:30:37;;;;;;;14.50;7.72;;;;;;;;;;4963982;28;20055;-68
2023/04/19 04:33:02;;;;;;;15.27;7.67;;;;;;;;;;4969264;28;20030;-65
2023/04/19 04:35:28;;;;;;;13.03;7.07;;;;;;;;;;4967467;28;20031;-65
2023/04/19 04:37:54;;;;;;;14.13;7.40;;;;;;;;;;4964534;28;20889;-65
2023/04/19 04:40:19;;;;;;;14.20;7.67;;;;;;;;;;4967605;28;20023;-68
2023/04/19 04:42:44;;;;;;;13.10;7.32;;;;;;;;;;4965963;28;20026;-65
2023/04/19 04:45:10;;;;;;;14.95;7.18;;;;;;;;;;4968259;28;20043;-67
2023/04/19 04:47:35;;;;;;;11.70;6.18;;;;;;;;;;4967273;28;20074;-68
2023/04/19 04:50:01;;;;;;;12.82;6.25;;;;;;;;;;4968502;28;20027;-64
2023/04/19 04:52:26;;;;;;;11.68;5.47;;;;;;;;;;4965912;28;20094;-67
2023/04/19 04:54:51;;;;;;;12.83;5.33;;;;;;;;;;4968078;28;20050;-66
2023/04/19 04:57:16;;;;;;;10.85;5.53;;;;;;;;;;4967236;28;20026;-68
2023/04/19 04:59:42;;;;;;;12.90;5.90;;;;;;;;;;4966783;28;20114;-66
2023/04/19 05:02:07;;;;;;;10.25;5.57;;;;;;;;;;4959998;28;20062;-67
2023/04/19 05:04:32;;;;;;;11.30;4.75;;;;;;;;;;4968975;28;20173;-66
2023/04/19 05:06:57;;;;;;;8.25;3.88;;;;;;;;;;4970908;28;20050;-67
2023/04/19 05:09:22;;;;;;;9.70;4.30;;;;;;;;;;4967681;28;20023;-66
2023/04/19 05:11:47;;;;;;;10.30;5.07;;;;;;;;;;4970212;28;20100;-66
2023/04/19 05:14:13;;;;;;;8.30;4.00;;;;;;;;;;4970255;28;20549;-72
2023/04/19 05:16:38;;;;;;;11.00;4.00;;;;;;;;;;4973359;28;20121;-67
2023/04/19 05:19:04;;;;;;;7.15;3.38;;;;;;;;;;4971280;28;20063;-63
2023/04/19 05:21:29;;;;;;;8.30;3.60;;;;;;;;;;4970434;28;20577;-64
2023/04/19 05:23:54;;;;;;;8.88;3.78;;;;;;;;;;4974261;28;20017;-63
2023/04/19 05:26:20;;;;;;;9.73;3.75;;;;;;;;;;4973907;28;20109;-63
2023/04/19 05:28:46;;;;;;;9.30;3.97;;;;;;;;;;4974638;28;20716;-64
2023/04/19 05:31:11;;;;;;;6.93;3.28;;;;;;;;;;4974379;28;20055;-63
2023/04/19 05:33:37;;;;;;;8.30;3.50;;;;;;;;;;4963928;28;20059;-64
2023/04/19 05:36:02;;;;;;;9.10;3.30;;;;;;;;;;4955721;28;20023;-67
2023/04/19 05:38:27;;;;;;;9.70;3.50;;;;;;;;;;4957543;28;20027;-63
2023/04/19 05:40:52;;;;;;;8.52;3.00;;;;;;;;;;4975379;28;20026;-64
2023/04/19 05:43:17;;;;;;;9.43;3.10;;;;;;;;;;4958864;28;20395;-66
2023/04/19 05:45:43;;;;;;;7.15;2.95;;;;;;;;;;4955920;28;20019;-66
2023/04/19 05:48:08;;;;;;;5.80;2.47;;;;;;;;;;4955004;28;20092;-64
2023/04/19 05:50:35;;;;;;;6.32;2.60;;;;;;;;;;4971142;28;20050;-65
2023/04/19 05:53:00;;;;;;;6.55;2.70;;;;;;;;;;4973960;28;20018;-62
2023/04/19 05:55:25;;;;;;;7.40;2.80;;;;;;;;;;4981817;28;20552;-62
2023/04/19 05:57:50;;;;;;;7.55;2.70;;;;;;;;;;4976122;28;20023;-62
2023/04/19 06:00:15;;;;;;;7.65;2.83;;;;;;;;;;4974150;28;20026;-61
2023/04/19 06:02:42;;;;;;;6.60;2.75;;;;;;;;;;4974543;28;20120;-61
2023/04/19 06:05:07;;;;;;;;;;;;;;;;;;4978843;28;20379;-62
2023/04/19 06:07:32;;;;;;;6.45;2.90;;;;;;;;;;4978298;28;20309;-62
2023/04/19 06:09:58;;;;;;;7.78;2.55;;;;;;;;;;4971626;28;20026;-68
2023/04/19 06:12:23;;;;;;;5.78;2.50;;;;;;;;;;4964578;28;20499;-66
2023/04/19 06:14:48;;;;;;;5.68;2.40;;;;;;;;;;4976729;28;20019;-64
2023/04/19 06:17:15;;;;;;;6.70;2.47;;;;;;;;;;4973770;28;20033;-66
2023/04/19 06:19:41;;;;;;;7.15;2.50;;;;;;;;;;4972112;28;20023;-63
2023/04/19 06:22:06;;;;;;;6.00;2.10;;;;;;;;;;4972641;28;20089;-68
2023/04/19 06:24:31;;;;;;;5.97;1.90;;;;;;;;;;4978450;28;20026;-65
2023/04/19 06:26:56;;;;;;;4.95;2.08;;;;;;;;;;4980808;28;20518;-64
2023/04/19 06:29:23;;;;;;;5.77;1.80;;;;;;;;;;4981117;28;20023;-64
2023/04/19 06:31:48;;;;;;;5.00;1.90;;;;;;;;;;4975849;28;20535;-64
2023/04/19 06:34:13;;;;;;;6.07;1.98;;;;;;;;;;4984841;28;20034;-65
2023/04/19 06:36:38;;;;;;;6.43;2.00;;;;;;;;;;4983774;28;20018;-69
2023/04/19 06:39:03;;;;;;;5.73;2.17;;;;;;;;;;4973673;28;20018;-74
2023/04/19 06:41:29;;;;;;;6.28;1.80;;;;;;;;;;4983547;28;20081;-64
2023/04/19 06:43:54;;;;;;;4.80;1.70;;;;;;;;;;4976866;28;20035;-66
2023/04/19 06:46:19;;;;;;;6.05;1.70;;;;;;;;;;4983324;28;20030;-64
2023/04/19 06:48:44;;;;;;;4.85;1.67;;;;;;;;;;4983532;28;20122;-63
2023/04/19 06:51:09;;;;;;;4.17;1.67;;;;;;;;;;4974081;28;20033;-67
2023/04/19 06:53:35;;;;;;;5.30;1.63;;;;;;;;;;4977008;28;20053;-67
2023/04/19 06:56:01;;;;;;;9.05;1.80;;;;;;;;;;4974147;28;20502;-64
2023/04/19 06:58:27;;;;;;;6.63;1.90;;;;;;;;;;4984241;28;20042;-70
2023/04/19 07:00:52;;;;;;;4.75;1.55;;;;;;;;;;4977741;28;20347;-65
2023/04/19 07:03:17;;;;;;;5.30;1.70;;;;;;;;;;4978169;28;20015;-65
2023/04/19 07:05:42;;;;;;;5.25;1.67;;;;;;;;;;4974911;28;20070;-63
2023/04/19 07:08:07;;;;;;;4.22;1.60;;;;;;;;;;4970149;28;20037;-63
2023/04/19 07:10:32;;;;;;;6.50;2.00;;;;;;;;;;4973090;28;20435;-63
2023/04/19 07:12:57;;;;;;;4.25;1.90;;;;;;;;;;4973756;28;20034;-66
2023/04/19 07:15:23;;;;;;;5.75;1.80;;;;;;;;;;4975939;28;20098;-64
2023/04/19 07:17:48;;;;;;;4.50;1.55;;;;;;;;;;4971882;28;20429;-67
2023/04/19 07:20:13;;;;;;;7.38;1.95;;;;;;;;;;4972623;28;20034;-63
2023/04/19 07:22:38;;;;;;;7.13;2.40;;;;;;;;;;4953792;28;20038;-64
2023/04/19 07:25:03;;;;;;;4.70;1.67;;;;;;;;;;4953637;28;20015;-64
2023/04/19 07:27:29;;;;;;;7.93;1.80;;;;;;;;;;4956026;28;20114;-63
2023/04/19 07:29:54;;;;;;;4.83;1.67;;;;;;;;;;4967937;28;20019;-64
2023/04/19 07:32:19;;;;;;;4.25;1.70;;;;;;;;;;4954116;28;20023;-63
2023/04/19 07:34:45;;;;;;;5.32;1.70;;;;;;;;;;4953975;28;20066;-67
2023/04/19 07:37:11;;;;;;;4.75;1.73;;;;;;;;;;4953515;28;20030;-64
2023/04/19 07:39:36;;;;;;;4.50;1.70;;;;;;;;;;4969721;28;20019;-67
2023/04/19 07:42:01;;;;;;;6.30;2.20;;;;;;;;;;4953604;28;20030;-65
2023/04/19 07:44:26;;;;;;;5.55;1.70;;;;;;;;;;4953286;28;20035;-67
2023/04/19 07:46:51;;;;;;;7.38;2.13;;;;;;;;;;4954077;28;20015;-63
2023/04/19 07:49:17;;;;;;;5.40;1.87;;;;;;;;;;4969271;28;20033;-65
2023/04/19 07:51:42;;;;;;;4.30;1.42;;;;;;;;;;4953263;28;20027;-64
2023/04/19 07:54:09;;;;;;;5.05;1.83;;;;;;;;;;4967980;28;20105;-62
2023/04/19 07:56:34;;;;;;;4.43;1.95;;;;;;;;;;4971199;28;20052;-63
2023/04/19 07:58:59;;;;;;;6.43;1.83;;;;;;;;;;4967132;28;20435;-63
2023/04/19 08:01:24;;;;;;;5.75;1.70;;;;;;;;;;4954140;28;20023;-68
2023/04/19 08:03:49;;;;;;;5.97;1.85;;;;;;;;;;4953464;28;20027;-63
2023/04/19 08:06:15;;;;;;;9.52;2.00;;;;;;;;;;4962541;28;20023;-66
2023/04/19 08:08:40;;;;;;;4.28;1.60;;;;;;;;;;4969174;28;20521;-63
2023/04/19 08:11:05;;;;;;;4.25;1.60;;;;;;;;;;4953220;28;20034;-66
2023/04/19 08:13:30;;;;;;;6.93;2.00;;;;;;;;;;4952675;29;20051;-62
2023/04/19 08:15:56;;;;;;;6.57;2.20;;;;;;;;;;4953026;28;20479;-63
2023/04/19 08:18:21;;;;;;;5.05;1.95;;;;;;;;;;4970514;28;20457;-67
2023/04/19 08:20:46;;;;;;;5.80;1.70;;;;;;;;;;4952680;28;20020;-69
2023/04/19 08:23:12;;;;;;;5.75;2.28;;;;;;;;;;4951948;28;20035;-63
2023/04/19 08:25:37;;;;;;;5.85;2.20;;;;;;;;;;4953169;28;20043;-66
2023/04/19 08:28:04;;;;;;;6.87;1.90;;;;;;;;;;4968994;28;20031;-63
2023/04/19 08:30:29;;;;;;;5.97;2.00;;;;;;;;;;4954181;28;20023;-67
2023/04/19 08:32:55;;;;;;;5.63;2.20;;;;;;;;;;4953175;28;20026;-64
2023/04/19 08:35:20;;;;;;;6.20;2.58;;;;;;;;;;4952766;28;20027;-69
2023/04/19 08:37:47;;;;;;;6.50;2.20;;;;;;;;;;4966470;28;20019;-64
2023/04/19 08:40:12;;;;;;;6.38;1.85;;;;;;;;;;4959732;28;20030;-64
2023/04/19 08:42:37;;;;;;;6.37;2.10;;;;;;;;;;4956591;28;20398;-63
2023/04/19 08:45:05;;;;;;;8.43;1.90;;;;;;;;;;4957134;28;20019;-63
2023/04/19 08:47:31;;;;;;;5.75;1.90;;;;;;;;;;4967221;28;20491;-66
2023/04/19 08:49:58;;;;;;;8.05;2.60;;;;;;;;;;4973830;28;20041;-64
2023/04/19 08:52:23;;;;;;;6.05;2.20;;;;;;;;;;4975667;28;20037;-66
2023/04/19 08:54:49;;;;;;;7.13;2.10;;;;;;;;;;4975504;28;20098;-64
2023/04/19 08:57:14;;;;;;;5.30;2.20;;;;;;;;;;4974041;28;20403;-64
2023/04/19 08:59:39;;;;;;;7.50;2.53;;;;;;;;;;4964472;28;20089;-67
2023/04/19 09:02:04;;;;;;;9.47;2.20;;;;;;;;;;4957398;28;20055;-68
2023/04/19 09:04:30;;;;;;;7.68;2.17;;;;;;;;;;4965079;28;20049;-67
2023/04/19 09:06:55;;;;;;;6.67;2.30;;;;;;;;;;4974871;28;20113;-63
2023/04/19 09:09:25;;;;;;;5.63;2.20;;;;;;;;;;4976118;28;20554;-64
2023/04/19 09:11:50;;;;;;;6.30;2.30;;;;;;;;;;4963848;28;20026;-70
2023/04/19 09:14:16;;;;;;;5.50;2.03;;;;;;;;;;4988995;28;20026;-66
2023/04/19 09:16:42;;;;;;;6.32;2.10;;;;;;;;;;4963719;28;20020;-63
2023/04/19 09:19:11;;;;;;;7.05;2.60;;;;;;;;;;4960278;28;20019;-63
2023/04/19 09:21:36;;;;;;;8.35;2.33;;;;;;;;;;4956129;28;20106;-68
2023/04/19 09:24:02;;;;;;;5.95;2.83;;;;;;;;;;4963707;28;20058;-63
2023/04/19 09:26:28;;;;;;;8.57;2.70;;;;;;;;;;4964893;28;20035;-64
2023/04/19 09:28:57;;;;;;;7.78;2.50;;;;;;;;;;4955615;28;20035;-64
2023/04/19 09:31:24;;;;;;;7.35;2.50;;;;;;;;;;4955749;28;20550;-66
2023/04/19 09:33:50;;;;;;;6.38;2.40;;;;;;;;;;4961496;28;20015;-65
2023/04/19 09:36:26;;;;;;;7.75;2.60;;;;;;;;;;4974079;28;20031;-70
2023/04/19 09:38:51;;;;;;;8.75;2.58;;;;;;;;;;4956874;29;20106;-63
2023/04/19 09:41:16;;;;;;;8.05;2.88;;;;;;;;;;4955851;28;20058;-68
2023/04/19 09:43:42;;;;;;;7.05;2.30;;;;;;;;;;4960051;28;20031;-64
2023/04/19 09:46:07;;;;;;;5.82;2.20;;;;;;;;;;4967546;28;20431;-65
2023/04/19 09:48:32;;;;;;;6.57;2.50;;;;;;;;;;4954860;28;20518;-64
2023/04/19 09:50:58;;;;;;;8.03;2.40;;;;;;;;;;4954561;28;20020;-64
2023/04/19 09:53:24;;;;;;;6.20;2.35;;;;;;;;;;4956965;28;20550;-63
2023/04/19 09:55:49;;;;;;;6.53;2.35;;;;;;;;;;4969583;28;20011;-64
2023/04/19 09:58:15;;;;;;;7.27;2.47;;;;;;;;;;4954857;28;20162;-66
2023/04/19 10:00:41;;;;;;;5.53;2.40;;;;;;;;;;4955801;28;20016;-65
2023/04/19 10:03:08;;;;;;;7.93;2.95;;;;;;;;;;4961199;28;20019;-67
2023/04/19 10:05:33;;;;;;;6.47;2.60;;;;;;;;;;4970722;28;20019;-65
2023/04/19 10:08:01;;;;;;;5.70;2.50;;;;;;;;;;4955115;28;20494;-64
2023/04/19 10:10:27;;;;;;;6.05;2.65;;;;;;;;;;4955822;28;20101;-69
2023/04/19 10:12:53;;;;;;;5.43;2.58;;;;;;;;;;4955535;28;20419;-64
2023/04/19 10:15:19;;;;;;;5.72;2.63;;;;;;;;;;4971120;28;20033;-68
2023/04/19 10:17:44;;;;;;;;;;;;;;;;;;4962444;28;20071;-64
2023/04/19 10:20:16;;;;;;;6.90;2.45;;;;;;;;;;4954622;28;19907;-63
2023/04/19 10:22:41;;;;;;;5.82;2.25;;;;;;;;;;4955006;28;20030;-67
2023/04/19 10:25:07;;;;;;;7.27;2.50;;;;;;;;;;4968514;28;20023;-69
2023/04/19 10:27:33;;;;;;;5.03;2.33;;;;;;;;;;4962962;28;20068;-64
2023/04/19 10:30:04;;;;;;;8.85;2.63;;;;;;;;;;4954985;28;20522;-64
2023/04/19 10:32:37;;;;;;;6.15;2.63;;;;;;;;;;4954985;28;20030;-66
2023/04/19 10:35:06;;;;;;;5.80;2.40;;;;;;;;;;4968641;28;20062;-64
2023/04/19 10:37:31;;;;;;;6.65;2.60;;;;;;;;;;4964288;28;20038;-67
2023/04/19 10:39:56;;;;;;;6.47;2.60;;;;;;;;;;4957553;28;20011;-65
2023/04/19 10:42:23;;;;;;;8.00;2.67;;;;;;;;;;4961512;28;20019;-66
2023/04/19 10:44:48;;;;;;;;;;;;;;;;;;4970603;28;20022;-63
2023/04/19 10:47:33;;;;;;;5.93;2.40;;;;;;;;;;4970205;28;19957;-69
2023/04/19 10:49:58;;;;;;;5.70;2.35;;;;;;;;;;4973757;28;20054;-64
2023/04/19 10:52:28;;;;;;;5.25;2.33;;;;;;;;;;4982291;28;20037;-68
2023/04/19 10:54:57;;;;;;;5.30;2.40;;;;;;;;;;4981663;28;20054;-66
2023/04/19 10:57:24;;;;;;;6.97;2.55;;;;;;;;;;4979983;28;20109;-66
2023/04/19 11:00:09;;;;;;;6.47;2.95;;;;;;;;;;4977853;28;20420;-63
2023/04/19 11:02:35;;;;;;;5.82;2.50;;;;;;;;;;4977926;28;20027;-64
2023/04/19 11:05:00;;;;;;;5.80;2.50;;;;;;;;;;4974750;28;20019;-65
2023/04/19 11:07:26;;;;;;;7.68;2.60;;;;;;;;;;4973899;28;20034;-66
2023/04/19 11:09:51;;;;;;;7.20;2.72;;;;;;;;;;4974110;28;20630;-63
2023/04/19 11:12:17;;;;;;;5.30;2.50;;;;;;;;;;4973614;28;20046;-66
2023/04/19 11:14:43;;;;;;;7.35;2.50;;;;;;;;;;4972711;28;20494;-64
2023/04/19 11:17:26;;;;;;;8.00;2.70;;;;;;;;;;4973878;28;20023;-64
2023/04/19 11:19:52;;;;;;;6.40;2.33;;;;;;;;;;4954358;28;20495;-64
2023/04/19 11:22:17;;;;;;;8.15;2.70;;;;;;;;;;4953936;28;20050;-63
2023/04/19 11:24:46;;;;;;;5.70;2.73;;;;;;;;;;4963159;28;20379;-69
2023/04/19 11:27:12;;;;;;;6.43;2.15;;;;;;;;;;4964992;28;20054;-65
2023/04/19 11:29:37;;;;;;;8.03;2.50;;;;;;;;;;4954403;28;20140;-66
2023/04/19 11:32:02;;;;;;;7.27;2.70;;;;;;;;;;4954004;28;20114;-65
2023/04/19 11:34:28;;;;;;;5.72;2.22;;;;;;;;;;4960519;28;20083;-66
2023/04/19 11:36:53;;;;;;;5.85;2.08;;;;;;;;;;4968209;28;20027;-64
2023/04/19 11:39:18;;;;;;;5.47;2.13;;;;;;;;;;4954557;28;20419;-66
2023/04/19 11:41:45;;;;;;;6.25;2.35;;;;;;;;;;4954019;28;20435;-64
2023/04/19 11:44:14;;;;;;;6.22;2.20;;;;;;;;;;4956934;28;20027;-64
2023/04/19 11:46:39;;;;;;;4.68;2.10;;;;;;;;;;4969177;28;20172;-66
2023/04/19 11:49:04;;;;;;;5.82;2.25;;;;;;;;;;4953534;28;20023;-63
2023/04/19 11:51:30;;;;;;;5.97;2.10;;;;;;;;;;4953424;28;20027;-64
2023/04/19 11:53:55;;;;;;;5.53;2.50;;;;;;;;;;4954892;28;20058;-65
2023/04/19 11:56:22;;;;;;;7.82;2.50;;;;;;;;;;4968406;28;20055;-64
2023/04/19 11:58:47;;;;;;;4.93;2.33;;;;;;;;;;4953273;28;20041;-66
2023/04/19 12:01:14;;;;;;;6.23;2.10;;;;;;;;;;4964997;28;20451;-69
2023/04/19 12:03:53;;;;;;;7.00;2.30;;;;;;;;;;4971954;28;20447;-67
2023/04/19 12:06:22;;;;;;;6.43;2.10;;;;;;;;;;4967089;28;20026;-63
2023/04/19 12:08:48;;;;;;;6.55;2.20;;;;;;;;;;4972065;28;20031;-66
2023/04/19 12:11:14;;;;;;;7.20;2.20;;;;;;;;;;4972306;28;20090;-63
2023/04/19 12:13:40;;;;;;;6.63;2.33;;;;;;;;;;4974796;28;20027;-65
2023/04/19 12:16:06;;;;;;;5.93;2.30;;;;;;;;;;4970445;28;20027;-67
2023/04/19 12:18:50;;;;;;;8.10;2.20;;;;;;;;;;4978332;28;20019;-67
2023/04/19 12:21:26;;;;;;;4.88;2.05;;;;;;;;;;4980002;28;20045;-68
2023/04/19 12:23:58;;;;;;;6.30;2.45;;;;;;;;;;4979700;28;20023;-64
2023/04/19 12:26:25;;;;;;;6.50;2.00;;;;;;;;;;4973009;28;20541;-65
2023/04/19 12:28:50;;;;;;;6.05;2.38;;;;;;;;;;4981087;28;20515;-65
2023/04/19 12:31:15;;;;;;;8.20;2.33;;;;;;;;;;4979078;28;20114;-65
2023/04/19 12:33:40;;;;;;;5.07;2.30;;;;;;;;;;4979056;28;20081;-64
2023/04/19 12:36:05;;;;;;;6.50;2.27;;;;;;;;;;4982430;28;20026;-67
2023/04/19 12:38:31;;;;;;;5.20;2.30;;;;;;;;;;4978874;28;20062;-63
2023/04/19 12:40:56;;;;;;;6.70;2.53;;;;;;;;;;4979697;28;20464;-65
2023/04/19 12:43:21;;;;;;;5.68;2.38;;;;;;;;;;4978993;28;20026;-64
2023/04/19 12:45:46;;;;;;;8.13;2.67;;;;;;;;;;4978188;28;20023;-71
2023/04/19 12:48:11;;;;;;;7.10;2.63;;;;;;;;;;4976856;28;20031;-63
2023/04/19 12:50:36;;;;;;;10.07;2.70;;;;;;;;;;4979026;28;20062;-65
2023/04/19 12:53:02;;;;;;;6.45;3.00;;;;;;;;;;4978764;28;20452;-67
2023/04/19 12:55:27;;;;;;;6.80;2.53;;;;;;;;;;4978388;28;20497;-65
2023/04/19 12:57:52;;;;;;;7.57;2.67;;;;;;;;;;4978144;28;20033;-65
2023/04/19 13:00:18;;;;;;;5.93;2.40;;;;;;;;;;4978123;28;20023;-66
2023/04/19 13:02:43;;;;;;;7.60;2.50;;;;;;;;;;4977996;28;20030;-63
2023/04/19 13:05:08;;;;;;;6.97;2.73;;;;;;;;;;4973101;28;20464;-66
2023/04/19 13:07:33;;;;;;;5.03;2.53;;;;;;;;;;4977226;28;20031;-67
2023/04/19 13:09:58;;;;;;;7.63;2.60;;;;;;;;;;4978657;28;20025;-65
2023/04/19 13:12:24;;;;;;;5.63;2.40;;;;;;;;;;4978664;28;20026;-65
2023/04/19 13:14:50;;;;;;;5.85;2.45;;;;;;;;;;4978189;28;20024;-63
2023/04/19 13:17:16;;;;;;;;;;;;;;;;;;4978370;28;20032;-64
2023/04/19 13:19:41;;;;;;;6.65;2.47;;;;;;;;;;4978213;28;20005;-63
2023/04/19 13:22:06;;;;;;;5.85;2.50;;;;;;;;;;4978287;28;20103;-69
2023/04/19 13:24:31;;;;;;;5.68;2.25;;;;;;;;;;4977337;28;20035;-65
2023/04/19 13:26:56;;;;;;;5.37;2.43;;;;;;;;;;4973852;28;20014;-67
2023/04/19 13:29:21;;;;;;;7.13;2.90;;;;;;;;;;4975182;28;20794;-65
2023/04/19 13:31:48;;;;;;;7.43;2.50;;;;;;;;;;4973896;28;20483;-65
2023/04/19 13:34:13;;;;;;;6.60;2.60;;;;;;;;;;4974594;28;20138;-65
2023/04/19 13:36:40;;;;;;;5.20;2.67;;;;;;;;;;4976556;28;20415;-66
2023/04/19 13:39:05;;;;;;;6.25;2.55;;;;;;;;;;4973197;28;20014;-67
2023/04/19 13:41:30;;;;;;;8.07;2.70;;;;;;;;;;4975057;28;20110;-65
2023/04/19 13:43:55;;;;;;;6.00;2.53;;;;;;;;;;4975517;28;20019;-65
2023/04/19 13:46:21;;;;;;;7.80;2.70;;;;;;;;;;4975295;28;20102;-63
2023/04/19 13:48:46;;;;;;;7.50;2.80;;;;;;;;;;4969492;28;20383;-68
2023/04/19 13:51:13;;;;;;;6.32;2.47;;;;;;;;;;4974755;28;20041;-63
2023/04/19 13:53:39;;;;;;;6.50;2.83;;;;;;;;;;4966136;28;20360;-65
2023/04/19 13:56:08;;;;;;;8.13;2.95;;;;;;;;;;4969421;28;20046;-66
2023/04/19 13:58:33;;;;;;;5.53;2.42;;;;;;;;;;4975118;28;20490;-68
2023/04/19 14:00:58;;;;;;;7.18;2.60;;;;;;;;;;4976309;28;20078;-64
2023/04/19 14:03:24;;;;;;;7.22;3.13;;;;;;;;;;4974822;28;20023;-62
2023/04/19 14:05:49;;;;;;;6.73;2.57;;;;;;;;;;4978151;28;20050;-66
2023/04/19 14:08:14;;;;;;;6.40;2.60;;;;;;;;;;4973778;28;20022;-65
2023/04/19 14:10:39;;;;;;;7.47;2.55;;;;;;;;;;4972027;28;20034;-64
2023/04/19 14:13:05;;;;;;;6.87;2.70;;;;;;;;;;4971137;28;20089;-64
2023/04/19 14:15:30;;;;;;;8.07;2.88;;;;;;;;;;4973741;28;20030;-65
2023/04/19 14:17:55;;;;;;;10.25;2.80;;;;;;;;;;4973810;28;20011;-66
2023/04/19 14:20:20;;;;;;;6.70;2.97;;;;;;;;;;4972921;28;20054;-65
2023/04/19 14:22:46;;;;;;;6.83;2.97;;;;;;;;;;4973993;28;20475;-64
2023/04/19 14:25:13;;;;;;;9.73;3.35;;;;;;;;;;4972972;28;20074;-64
2023/04/19 14:27:39;;;;;;;8.90;3.10;;;;;;;;;;4973149;28;20489;-65
2023/04/19 14:30:05;;;;;;;7.60;3.13;;;;;;;;;;4974383;28;20070;-65
2023/04/19 14:32:30;;;;;;;6.68;3.17;;;;;;;;;;4970284;28;20104;-66